Antofagasta, Chile

5:27 PM CLST on January 26, 2015 (GMT -0300)
Cerro Moreno International | Change Station
CLOSE
Current Station
Airport
Location: Antofagasta,
Elevation: 394 ft
Nearby Weather Stations

Elev 394 ft 23.45 °S, 70.44 °W | Updated 27 minutes ago

Partly Cloudy
Partly Cloudy
72 °F
Feels Like 72 °F
N
14
Wind Variable Wind from SSW

Today
High -- | Low -- °F
--% Chance of Precip.
Yesterday
High -- | Low -- °F
Precip. -- in
7:16 AM 8:31 PM
Waxing Crescent, 46% visible
Pressure 29.80 in
Visibility 6.2 miles
Clouds Few 1600 ft
Dew Point 61 °F
Humidity 69%
Rainfall 0.00 in
Snow Depth Not available.
UV 8 out of 12
Pollen Not available.
Air Quality Not available.
Flu Activity Not available.
METAR SCFA 262000Z 20012KT 9999 FEW016 22/16 Q1009 NOSIG

More Conditions Fewer Conditions

Pressure 29.80 in
Visibility 6.2 miles
Clouds Few 1600 ft
Dew Point 61 °F
Humidity 69%
Rainfall 0.00 in
Snow Depth Not available.
UV 8 out of 12
Pollen Not available.
Air Quality Not available.
Flu Activity Not available.
METAR SCFA 262000Z 20012KT 9999 FEW016 22/16 Q1009 NOSIG

More Conditions Fewer Conditions

10-Day Weather Forecast

Almanac

Astronomy

Jan. 26, 2015 Rise Set
Actual Time
Civil Twilight
Nautical Twilight
Astronomical Twilight
Moon
Length of Visible Light
Length of Day
Tomorrow will be .
, % of the Moon is Illuminated

Today's Extremes

Country Highs Country Lows

Community

WunderPhotos

Upload Photos

1,790,350 photos uploaded!

WunderBlogs® & News

Nearby

Air Quality

  Air Quality AQ Index Pollutant
Not available.

Snow Depth

Station Depth Elevation

Earthquake Activity

City Distance Mag. Time & Date
Minimum magnitude displayed is 2.5.

Coastal Water Temperatures

Place Temperature

Nearby Weather Stations